createdAt,value
2018-03-14T00:00:32.859Z,1002.83
2018-03-14T00:01:32.837Z,1002.82
2018-03-14T00:02:32.819Z,1002.81
2018-03-14T00:03:32.797Z,1002.82
2018-03-14T00:04:32.783Z,1002.8
2018-03-14T00:05:32.756Z,1002.82
2018-03-14T00:06:32.737Z,1002.78
2018-03-14T00:07:32.717Z,1002.79
2018-03-14T00:08:32.695Z,1002.8
2018-03-14T00:09:32.676Z,1002.79
2018-03-14T00:10:32.656Z,1002.83
2018-03-14T00:11:32.635Z,1002.83
2018-03-14T00:12:32.614Z,1002.82
2018-03-14T00:13:32.593Z,1002.78
2018-03-14T00:14:32.575Z,1002.81
2018-03-14T00:15:32.551Z,1002.82
2018-03-14T00:16:32.535Z,1002.83
2018-03-14T00:17:32.513Z,1002.87
2018-03-14T00:18:32.499Z,1002.84
2018-03-14T00:19:32.470Z,1002.86
2018-03-14T00:20:32.449Z,1002.85
2018-03-14T00:21:32.429Z,1002.86
2018-03-14T00:22:32.410Z,1002.85
2018-03-14T00:23:32.389Z,1002.92
2018-03-14T00:24:32.367Z,1002.91
2018-03-14T00:25:32.348Z,1002.93
2018-03-14T00:26:32.328Z,1002.98
2018-03-14T00:27:32.308Z,1002.92
2018-03-14T00:28:32.286Z,1002.92
2018-03-14T00:29:32.265Z,1002.92
2018-03-14T00:30:32.247Z,1002.97
2018-03-14T00:31:32.225Z,1003
2018-03-14T00:32:32.205Z,1002.96
2018-03-14T00:33:32.186Z,1002.96
2018-03-14T00:34:32.165Z,1002.96
2018-03-14T00:35:32.144Z,1002.97
2018-03-14T00:36:32.121Z,1002.97
2018-03-14T00:37:32.102Z,1002.99
2018-03-14T00:38:32.082Z,1002.96
2018-03-14T00:39:32.060Z,1003.04
2018-03-14T00:40:32.040Z,1003.03
2018-03-14T00:41:32.022Z,1003.03
2018-03-14T00:42:31.999Z,1003.05
2018-03-14T00:43:31.980Z,1003.06
2018-03-14T00:44:31.960Z,1003.06
2018-03-14T00:45:31.938Z,1003.05
2018-03-14T00:46:31.920Z,1003.02
2018-03-14T00:47:31.898Z,1003.11
2018-03-14T00:48:31.883Z,1003.08
2018-03-14T00:49:31.857Z,1003.04
2018-03-14T00:50:31.837Z,1003.09
2018-03-14T00:51:31.818Z,1003.05
2018-03-14T00:52:31.796Z,1003.12
2018-03-14T00:53:31.772Z,1003.09
2018-03-14T00:54:31.755Z,1003.07
2018-03-14T00:55:31.732Z,1003.12
2018-03-14T00:56:31.713Z,1003.13
2018-03-14T00:57:31.692Z,1003.14
2018-03-14T00:58:31.671Z,1003.12
2018-03-14T00:59:31.649Z,1003.11
2018-03-14T01:00:31.631Z,1003.1
2018-03-14T01:01:31.610Z,1003.13
2018-03-14T01:02:31.592Z,1003.1
2018-03-14T01:03:31.569Z,1003.12
2018-03-14T01:04:31.552Z,1003.1
2018-03-14T01:05:31.532Z,1003.1
2018-03-14T01:06:31.510Z,1003.11
2018-03-14T01:07:31.490Z,1003.11
2018-03-14T01:08:31.466Z,1003.08
2018-03-14T01:09:31.447Z,1003.1
2018-03-14T01:10:31.478Z,1003.11
2018-03-14T01:11:31.405Z,1003.12
2018-03-14T01:12:31.396Z,1003.14
2018-03-14T01:13:31.367Z,1003.14
2018-03-14T01:14:31.352Z,1003.15
2018-03-14T01:15:31.322Z,1003.1
2018-03-14T01:16:31.303Z,1003.12
2018-03-14T01:17:31.281Z,1003.12
2018-03-14T01:18:31.261Z,1003.13
2018-03-14T01:19:31.241Z,1003.17
2018-03-14T01:20:31.221Z,1003.19
2018-03-14T01:21:31.201Z,1003.15
2018-03-14T01:22:31.179Z,1003.14
2018-03-14T01:23:31.159Z,1003.13
2018-03-14T01:24:31.137Z,1003.1
2018-03-14T01:25:31.117Z,1003.16
2018-03-14T01:26:31.097Z,1003.14
2018-03-14T01:27:31.077Z,1003.16
2018-03-14T01:28:31.060Z,1003.14
2018-03-14T01:29:31.038Z,1003.13
2018-03-14T01:30:31.016Z,1003.09
2018-03-14T01:31:30.995Z,1003.11
2018-03-14T01:32:30.974Z,1003.13
2018-03-14T01:33:30.954Z,1003.11
2018-03-14T01:34:30.990Z,1003.14
2018-03-14T01:35:30.913Z,1003.1
2018-03-14T01:36:30.892Z,1003.12
2018-03-14T01:37:30.872Z,1003.12
2018-03-14T01:38:30.850Z,1003.14
2018-03-14T01:39:30.829Z,1003.12
2018-03-14T01:40:30.808Z,1003.16
2018-03-14T01:41:30.788Z,1003.16
2018-03-14T01:42:30.769Z,1003.18
2018-03-14T01:43:30.747Z,1003.19
2018-03-14T01:44:30.934Z,1003.17
2018-03-14T01:45:30.708Z,1003.17
2018-03-14T01:46:30.687Z,1003.18
2018-03-14T01:47:30.667Z,1003.18
2018-03-14T01:48:30.645Z,1003.18
2018-03-14T01:49:30.624Z,1003.21
2018-03-14T01:50:30.605Z,1003.18
2018-03-14T01:51:30.584Z,1003.26
2018-03-14T01:52:30.565Z,1003.17
2018-03-14T01:53:30.542Z,1003.2
2018-03-14T01:54:30.522Z,1003.19
2018-03-14T01:55:30.504Z,1003.22
2018-03-14T01:56:30.482Z,1003.21
2018-03-14T01:57:30.461Z,1003.18
2018-03-14T01:58:30.443Z,1003.16
2018-03-14T01:59:30.421Z,1003.13
2018-03-14T02:00:30.399Z,1003.15
2018-03-14T02:01:30.377Z,1003.16
2018-03-14T02:02:30.358Z,1003.16
2018-03-14T02:03:30.339Z,1003.2
2018-03-14T02:04:30.317Z,1003.15
2018-03-14T02:05:30.297Z,1003.21
2018-03-14T02:06:30.276Z,1003.15
2018-03-14T02:07:30.257Z,1003.17
2018-03-14T02:08:30.235Z,1003.17
2018-03-14T02:09:30.213Z,1003.2
2018-03-14T02:10:30.198Z,1003.18
2018-03-14T02:11:30.173Z,1003.21
2018-03-14T02:12:30.152Z,1003.18
2018-03-14T02:13:30.132Z,1003.21
2018-03-14T02:14:30.111Z,1003.22
2018-03-14T02:15:30.089Z,1003.24
2018-03-14T02:16:30.070Z,1003.21
2018-03-14T02:17:30.049Z,1003.21
2018-03-14T02:18:30.030Z,1003.25
2018-03-14T02:19:30.010Z,1003.22
2018-03-14T02:20:29.987Z,1003.22
2018-03-14T02:21:29.968Z,1003.23
2018-03-14T02:22:29.954Z,1003.2
2018-03-14T02:23:29.929Z,1003.23
2018-03-14T02:24:29.906Z,1003.21
2018-03-14T02:25:29.891Z,1003.18
2018-03-14T02:26:29.866Z,1003.16
2018-03-14T02:27:29.842Z,1003.14
2018-03-14T02:28:29.824Z,1003.13
2018-03-14T02:29:29.802Z,1003.15
2018-03-14T02:30:29.784Z,1003.15
2018-03-14T02:31:29.763Z,1003.16
2018-03-14T02:32:29.741Z,1003.17
2018-03-14T02:33:29.722Z,1003.18
2018-03-14T02:34:29.699Z,1003.18
2018-03-14T02:35:29.678Z,1003.21
2018-03-14T02:36:29.658Z,1003.2
2018-03-14T02:37:29.640Z,1003.15
2018-03-14T02:38:29.615Z,1003.2
2018-03-14T02:39:29.599Z,1003.22
2018-03-14T02:40:29.574Z,1003.24
2018-03-14T02:41:29.555Z,1003.24
2018-03-14T02:42:29.534Z,1003.25
2018-03-14T02:43:29.517Z,1003.25
2018-03-14T02:44:29.494Z,1003.28
2018-03-14T02:45:29.475Z,1003.32
2018-03-14T02:46:29.452Z,1003.26
2018-03-14T02:47:29.431Z,1003.25
2018-03-14T02:48:29.411Z,1003.29
2018-03-14T02:49:29.389Z,1003.28
2018-03-14T02:50:29.369Z,1003.28
2018-03-14T02:51:29.355Z,1003.25
2018-03-14T02:52:29.334Z,1003.25
2018-03-14T02:53:29.308Z,1003.25
2018-03-14T02:54:29.288Z,1003.3
2018-03-14T02:55:29.267Z,1003.34
2018-03-14T02:56:29.246Z,1003.33
2018-03-14T02:57:29.224Z,1003.3
2018-03-14T02:58:29.205Z,1003.33
2018-03-14T02:59:29.184Z,1003.32
2018-03-14T03:00:29.164Z,1003.28
2018-03-14T03:01:29.144Z,1003.29
2018-03-14T03:02:29.123Z,1003.27
2018-03-14T03:03:29.103Z,1003.28
2018-03-14T03:04:29.086Z,1003.27
2018-03-14T03:05:29.063Z,1003.3
2018-03-14T03:06:29.043Z,1003.28
2018-03-14T03:07:29.024Z,1003.26
2018-03-14T03:08:29.001Z,1003.26
2018-03-14T03:09:28.984Z,1003.25
2018-03-14T03:10:28.960Z,1003.25
2018-03-14T03:11:28.942Z,1003.29
2018-03-14T03:12:28.919Z,1003.28
2018-03-14T03:13:28.896Z,1003.23
2018-03-14T03:14:28.876Z,1003.25
2018-03-14T03:15:28.855Z,1003.26
2018-03-14T03:16:28.836Z,1003.28
2018-03-14T03:17:28.815Z,1003.27
2018-03-14T03:18:28.793Z,1003.29
2018-03-14T03:19:28.774Z,1003.25
2018-03-14T03:20:28.753Z,1003.24
2018-03-14T03:21:28.733Z,1003.26
2018-03-14T03:22:28.711Z,1003.28
2018-03-14T03:23:28.690Z,1003.25
2018-03-14T03:24:28.670Z,1003.28
2018-03-14T03:25:28.703Z,1003.29
2018-03-14T03:26:28.630Z,1003.31
2018-03-14T03:27:28.610Z,1003.35
2018-03-14T03:28:28.590Z,1003.3
2018-03-14T03:29:28.567Z,1003.35
2018-03-14T03:30:28.553Z,1003.32
2018-03-14T03:31:28.528Z,1003.34
2018-03-14T03:32:28.507Z,1003.35
2018-03-14T03:33:28.488Z,1003.4
2018-03-14T03:34:28.469Z,1003.36
2018-03-14T03:35:28.447Z,1003.38
2018-03-14T03:36:28.431Z,1003.4
2018-03-14T03:37:28.404Z,1003.4
2018-03-14T03:38:28.385Z,1003.41
2018-03-14T03:39:28.363Z,1003.43
2018-03-14T03:40:28.343Z,1003.44
2018-03-14T03:41:28.322Z,1003.42
2018-03-14T03:42:28.301Z,1003.45
2018-03-14T03:43:28.282Z,1003.44
2018-03-14T03:44:28.463Z,1003.43
2018-03-14T03:45:28.239Z,1003.42
2018-03-14T03:46:28.220Z,1003.42
2018-03-14T03:47:28.199Z,1003.43
2018-03-14T03:48:28.178Z,1003.43
2018-03-14T03:49:28.159Z,1003.44
2018-03-14T03:50:28.137Z,1003.46
2018-03-14T03:51:28.118Z,1003.43
2018-03-14T03:52:28.101Z,1003.47
2018-03-14T03:53:28.075Z,1003.47
2018-03-14T03:54:28.058Z,1003.47
2018-03-14T03:55:28.036Z,1003.47
2018-03-14T03:56:28.017Z,1003.51
2018-03-14T03:57:27.994Z,1003.51
2018-03-14T03:58:27.973Z,1003.52
2018-03-14T03:59:27.953Z,1003.52
2018-03-14T04:00:27.930Z,1003.52
2018-03-14T04:01:27.911Z,1003.52
2018-03-14T04:02:27.890Z,1003.52
2018-03-14T04:03:27.870Z,1003.53
2018-03-14T04:04:27.850Z,1003.55
2018-03-14T04:05:27.829Z,1003.55
2018-03-14T04:06:27.807Z,1003.52
2018-03-14T04:07:27.788Z,1003.53
2018-03-14T04:08:27.774Z,1003.5
2018-03-14T04:09:27.747Z,1003.51
2018-03-14T04:10:27.725Z,1003.53
2018-03-14T04:11:27.709Z,1003.54
2018-03-14T04:12:27.686Z,1003.52
2018-03-14T04:13:27.664Z,1003.55
2018-03-14T04:14:27.644Z,1003.51
2018-03-14T04:15:27.626Z,1003.5
2018-03-14T04:16:27.603Z,1003.47
2018-03-14T04:17:27.586Z,1003.49
2018-03-14T04:18:27.560Z,1003.47
2018-03-14T04:19:27.543Z,1003.48
2018-03-14T04:20:27.522Z,1003.47
2018-03-14T04:21:27.500Z,1003.45
2018-03-14T04:22:27.479Z,1003.43
2018-03-14T04:23:27.459Z,1003.45
2018-03-14T04:24:27.438Z,1003.41
2018-03-14T04:25:27.418Z,1003.44
2018-03-14T04:26:27.398Z,1003.41
2018-03-14T04:27:27.378Z,1003.43
2018-03-14T04:28:27.356Z,1003.43
2018-03-14T04:29:27.336Z,1003.42
2018-03-14T04:30:27.315Z,1003.47
2018-03-14T04:31:27.294Z,1003.46
2018-03-14T04:32:27.275Z,1003.44
2018-03-14T04:33:27.254Z,1003.48
2018-03-14T04:34:27.235Z,1003.45
2018-03-14T04:35:27.211Z,1003.41
2018-03-14T04:36:27.193Z,1003.4
2018-03-14T04:37:27.171Z,1003.39
2018-03-14T04:38:27.151Z,1003.41
2018-03-14T04:39:27.137Z,1003.38
2018-03-14T04:40:27.114Z,1003.42
2018-03-14T04:41:27.091Z,1003.4
2018-03-14T04:42:27.074Z,1003.37
2018-03-14T04:43:27.050Z,1003.44
2018-03-14T04:44:27.029Z,1003.41
2018-03-14T04:45:27.010Z,1003.41
2018-03-14T04:46:26.989Z,1003.41
2018-03-14T04:47:26.969Z,1003.43
2018-03-14T04:48:26.949Z,1003.43
2018-03-14T04:49:26.931Z,1003.46
2018-03-14T04:50:26.907Z,1003.45
2018-03-14T04:51:26.887Z,1003.46
2018-03-14T04:52:26.870Z,1003.45
2018-03-14T04:53:26.846Z,1003.48
2018-03-14T04:54:26.829Z,1003.48
2018-03-14T04:55:26.804Z,1003.5
2018-03-14T04:56:26.785Z,1003.48
2018-03-14T04:57:26.764Z,1003.46
2018-03-14T04:58:26.743Z,1003.53
2018-03-14T04:59:26.724Z,1003.54
2018-03-14T05:00:26.700Z,1003.53
2018-03-14T05:01:26.681Z,1003.54
2018-03-14T05:02:26.662Z,1003.54
2018-03-14T05:03:26.641Z,1003.51
2018-03-14T05:04:26.619Z,1003.54
2018-03-14T05:05:26.601Z,1003.53
2018-03-14T05:06:26.579Z,1003.51
2018-03-14T05:07:26.583Z,1003.48
2018-03-14T05:08:26.538Z,1003.51
2018-03-14T05:09:26.517Z,1003.51
2018-03-14T05:10:26.500Z,1003.52
2018-03-14T05:11:26.478Z,1003.53
2018-03-14T05:12:26.455Z,1003.51
2018-03-14T05:13:26.434Z,1003.49
2018-03-14T05:14:26.420Z,1003.52
2018-03-14T05:15:26.395Z,1003.54
2018-03-14T05:16:26.375Z,1003.54
2018-03-14T05:17:26.354Z,1003.53
2018-03-14T05:18:26.334Z,1003.53
2018-03-14T05:19:26.317Z,1003.55
2018-03-14T05:20:26.293Z,1003.59
2018-03-14T05:21:26.277Z,1003.6
2018-03-14T05:22:26.250Z,1003.64
2018-03-14T05:23:26.230Z,1003.63
2018-03-14T05:24:26.212Z,1003.65
2018-03-14T05:25:26.191Z,1003.68
2018-03-14T05:26:26.171Z,1003.61
2018-03-14T05:27:26.150Z,1003.63
2018-03-14T05:28:26.128Z,1003.59
2018-03-14T05:29:26.107Z,1003.63
2018-03-14T05:30:26.088Z,1003.61
2018-03-14T05:31:26.069Z,1003.57
2018-03-14T05:32:26.053Z,1003.57
2018-03-14T05:33:26.026Z,1003.6
2018-03-14T05:34:26.006Z,1003.57
2018-03-14T05:35:25.985Z,1003.57
2018-03-14T05:36:25.965Z,1003.6
2018-03-14T05:37:25.946Z,1003.6
2018-03-14T05:38:25.925Z,1003.56
2018-03-14T05:39:25.904Z,1003.56
2018-03-14T05:40:25.934Z,1003.6
2018-03-14T05:41:25.868Z,1003.6
2018-03-14T05:42:25.845Z,1003.61
2018-03-14T05:43:25.824Z,1003.64
2018-03-14T05:44:26.005Z,1003.61
2018-03-14T05:45:25.783Z,1003.67
2018-03-14T05:46:25.763Z,1003.65
2018-03-14T05:47:25.741Z,1003.67
2018-03-14T05:48:25.719Z,1003.7
2018-03-14T05:49:25.698Z,1003.7
2018-03-14T05:50:25.678Z,1003.74
2018-03-14T05:51:25.659Z,1003.74
2018-03-14T05:52:25.637Z,1003.75
2018-03-14T05:53:25.620Z,1003.75
2018-03-14T05:54:25.606Z,1003.74
2018-03-14T05:55:25.580Z,1003.78
2018-03-14T05:56:25.559Z,1003.76
2018-03-14T05:57:25.537Z,1003.8
2018-03-14T05:58:25.524Z,1003.78
2018-03-14T05:59:25.496Z,1003.79
2018-03-14T06:00:25.475Z,1003.82
2018-03-14T06:01:25.461Z,1003.83
2018-03-14T06:02:25.435Z,1003.84
2018-03-14T06:03:25.417Z,1003.79
2018-03-14T06:04:25.394Z,1003.8
2018-03-14T06:05:25.419Z,1003.77
2018-03-14T06:06:25.352Z,1003.76
2018-03-14T06:07:25.336Z,1003.76
2018-03-14T06:08:25.312Z,1003.73
2018-03-14T06:09:25.317Z,1003.75
2018-03-14T06:10:25.272Z,1003.75
2018-03-14T06:11:25.249Z,1003.73
2018-03-14T06:12:25.230Z,1003.72
2018-03-14T06:13:25.208Z,1003.73
2018-03-14T06:14:25.191Z,1003.76
2018-03-14T06:15:25.168Z,1003.77
2018-03-14T06:16:25.172Z,1003.71
2018-03-14T06:17:25.130Z,1003.77
2018-03-14T06:18:25.111Z,1003.73
2018-03-14T06:19:25.090Z,1003.75
2018-03-14T06:20:25.068Z,1003.78
2018-03-14T06:21:25.049Z,1003.79
2018-03-14T06:22:25.029Z,1003.8
2018-03-14T06:23:25.005Z,1003.81
2018-03-14T06:24:24.991Z,1003.79
2018-03-14T06:25:24.968Z,1003.84
2018-03-14T06:26:24.949Z,1003.81
2018-03-14T06:27:24.927Z,1003.79
2018-03-14T06:28:24.905Z,1003.84
2018-03-14T06:29:24.888Z,1003.84
2018-03-14T06:30:24.864Z,1003.83
2018-03-14T06:31:24.871Z,1003.85
2018-03-14T06:32:24.824Z,1003.87
2018-03-14T06:33:24.804Z,1003.95
2018-03-14T06:34:24.792Z,1003.92
2018-03-14T06:35:24.763Z,1003.9
2018-03-14T06:36:24.744Z,1003.94
2018-03-14T06:37:24.723Z,1003.94
2018-03-14T06:38:24.701Z,1003.99
2018-03-14T06:39:24.679Z,1003.95
2018-03-14T06:40:24.660Z,1003.97
2018-03-14T06:41:24.640Z,1004
2018-03-14T06:42:24.618Z,1004.04
2018-03-14T06:43:24.598Z,1003.98
2018-03-14T06:44:24.578Z,1003.99
2018-03-14T06:45:24.559Z,1004.01
2018-03-14T06:46:24.538Z,1004.05
2018-03-14T06:47:24.517Z,1004.05
2018-03-14T06:48:24.556Z,1004.09
2018-03-14T06:49:24.478Z,1004.07
2018-03-14T06:50:24.463Z,1004.02
2018-03-14T06:51:24.436Z,1004.02
2018-03-14T06:52:24.420Z,1004
2018-03-14T06:53:24.395Z,1004.03
2018-03-14T06:54:24.378Z,1004.01
2018-03-14T06:55:24.356Z,1004.04
2018-03-14T06:56:24.336Z,1004.06
2018-03-14T06:57:24.318Z,1004.06
2018-03-14T06:58:24.300Z,1004.08
2018-03-14T06:59:24.277Z,1004.08
2018-03-14T07:00:24.256Z,1004.11
2018-03-14T07:01:24.237Z,1004.13
2018-03-14T07:02:24.214Z,1004.16
2018-03-14T07:03:24.196Z,1004.19
2018-03-14T07:04:24.177Z,1004.17
2018-03-14T07:05:24.155Z,1004.19
2018-03-14T07:06:24.137Z,1004.21
2018-03-14T07:07:24.116Z,1004.24
2018-03-14T07:08:24.095Z,1004.2
2018-03-14T07:09:24.074Z,1004.2
2018-03-14T07:10:24.055Z,1004.22
2018-03-14T07:11:24.035Z,1004.22
2018-03-14T07:12:24.014Z,1004.17
2018-03-14T07:13:23.995Z,1004.2
2018-03-14T07:14:23.975Z,1004.19
2018-03-14T07:15:23.959Z,1004.27
2018-03-14T07:16:23.936Z,1004.28
2018-03-14T07:17:23.919Z,1004.24
2018-03-14T07:18:23.895Z,1004.27
2018-03-14T07:19:23.877Z,1004.26
2018-03-14T07:20:23.857Z,1004.25
2018-03-14T07:21:23.838Z,1004.22
2018-03-14T07:22:23.818Z,1004.25
2018-03-14T07:23:23.794Z,1004.31
2018-03-14T07:24:23.783Z,1004.29
2018-03-14T07:25:23.758Z,1004.3
2018-03-14T07:26:23.737Z,1004.32
2018-03-14T07:27:23.717Z,1004.3
2018-03-14T07:28:23.698Z,1004.32
2018-03-14T07:29:23.678Z,1004.31
2018-03-14T07:30:23.664Z,1004.34
2018-03-14T07:31:23.636Z,1004.33
2018-03-14T07:32:23.622Z,1004.33
2018-03-14T07:33:23.600Z,1004.39
2018-03-14T07:34:23.579Z,1004.36
2018-03-14T07:35:23.558Z,1004.34
2018-03-14T07:36:23.587Z,1004.35
2018-03-14T07:37:23.523Z,1004.35
2018-03-14T07:38:23.499Z,1004.37
2018-03-14T07:39:23.481Z,1004.4
2018-03-14T07:40:23.462Z,1004.36
2018-03-14T07:41:23.445Z,1004.36
2018-03-14T07:42:23.421Z,1004.35
2018-03-14T07:43:23.401Z,1004.35
2018-03-14T07:44:23.382Z,1004.36
2018-03-14T07:45:23.564Z,1004.42
2018-03-14T07:46:23.343Z,1004.39
2018-03-14T07:47:23.324Z,1004.42
2018-03-14T07:48:23.306Z,1004.43
2018-03-14T07:49:23.291Z,1004.48
2018-03-14T07:50:23.268Z,1004.48
2018-03-14T07:51:23.247Z,1004.5
2018-03-14T07:52:23.227Z,1004.49
2018-03-14T07:53:23.210Z,1004.49
2018-03-14T07:54:23.191Z,1004.51
2018-03-14T07:55:23.171Z,1004.55
2018-03-14T07:56:23.152Z,1004.54
2018-03-14T07:57:23.132Z,1004.56
2018-03-14T07:58:23.115Z,1004.55
2018-03-14T07:59:23.094Z,1004.56
2018-03-14T08:00:23.075Z,1004.53
2018-03-14T08:01:23.057Z,1004.54
2018-03-14T08:02:23.039Z,1004.53
2018-03-14T08:03:23.020Z,1004.54
2018-03-14T08:04:23.001Z,1004.56
2018-03-14T08:05:22.982Z,1004.52
2018-03-14T08:06:22.968Z,1004.51
2018-03-14T08:07:22.943Z,1004.51
2018-03-14T08:08:22.924Z,1004.53
2018-03-14T08:09:22.906Z,1004.56
2018-03-14T08:10:22.888Z,1004.52
2018-03-14T08:11:22.869Z,1004.56
2018-03-14T08:12:22.855Z,1004.5
2018-03-14T08:13:22.855Z,1004.46
2018-03-14T08:14:22.820Z,1004.47
2018-03-14T08:15:22.798Z,1004.47
2018-03-14T08:16:22.779Z,1004.46
2018-03-14T08:17:22.760Z,1004.44
2018-03-14T08:18:22.741Z,1004.45
2018-03-14T08:19:22.723Z,1004.39
2018-03-14T08:20:22.749Z,1004.45
2018-03-14T08:21:22.697Z,1004.42
2018-03-14T08:22:22.670Z,1004.42
2018-03-14T08:23:22.652Z,1004.44
2018-03-14T08:24:22.638Z,1004.42
2018-03-14T08:25:22.616Z,1004.47
2018-03-14T08:26:22.599Z,1004.43
2018-03-14T08:27:22.581Z,1004.47
2018-03-14T08:28:22.563Z,1004.41
2018-03-14T08:29:22.546Z,1004.54
2018-03-14T08:30:22.569Z,1004.5
2018-03-14T08:31:22.513Z,1004.51
2018-03-14T08:32:22.497Z,1004.55
2018-03-14T08:33:22.477Z,1004.56
2018-03-14T08:34:22.512Z,1004.54
2018-03-14T08:35:22.444Z,1004.55
2018-03-14T08:36:22.428Z,1004.58
2018-03-14T08:37:22.411Z,1004.58
2018-03-14T08:38:22.396Z,1004.55
2018-03-14T08:39:22.379Z,1004.58
2018-03-14T08:40:22.362Z,1004.6
2018-03-14T08:41:22.349Z,1004.6
2018-03-14T08:42:22.330Z,1004.62
2018-03-14T08:43:22.314Z,1004.61
2018-03-14T08:44:22.296Z,1004.58
2018-03-14T08:45:22.281Z,1004.59
2018-03-14T08:46:22.266Z,1004.59
2018-03-14T08:47:22.252Z,1004.6
2018-03-14T08:48:22.237Z,1004.66
2018-03-14T08:49:22.222Z,1004.6
2018-03-14T08:50:22.209Z,1004.57
2018-03-14T08:51:22.186Z,1004.57
2018-03-14T08:52:22.171Z,1004.64
2018-03-14T08:53:22.156Z,1004.61
2018-03-14T08:54:22.183Z,1004.64
2018-03-14T08:55:22.126Z,1004.63
2018-03-14T08:56:22.110Z,1004.61
2018-03-14T08:57:22.099Z,1004.58
2018-03-14T08:58:22.081Z,1004.56
2018-03-14T08:59:22.067Z,1004.56
2018-03-14T09:00:22.049Z,1004.61
2018-03-14T09:01:22.034Z,1004.59
2018-03-14T09:02:22.021Z,1004.6
2018-03-14T09:03:22.004Z,1004.62
2018-03-14T09:04:21.989Z,1004.65
2018-03-14T09:05:21.974Z,1004.63
2018-03-14T09:06:21.959Z,1004.67
2018-03-14T09:07:21.950Z,1004.66
2018-03-14T09:08:21.930Z,1004.65
2018-03-14T09:09:21.916Z,1004.66
2018-03-14T09:10:21.903Z,1004.7
2018-03-14T09:11:21.886Z,1004.79
2018-03-14T09:12:21.874Z,1004.75
2018-03-14T09:13:21.862Z,1004.7
2018-03-14T09:14:21.845Z,1004.73
2018-03-14T09:15:21.831Z,1004.71
2018-03-14T09:16:21.817Z,1004.71
2018-03-14T09:17:21.804Z,1004.71
2018-03-14T09:18:21.791Z,1004.66
2018-03-14T09:19:21.785Z,1004.62
2018-03-14T09:20:21.766Z,1004.65
2018-03-14T09:21:21.764Z,1004.62
2018-03-14T09:22:21.738Z,1004.59
2018-03-14T09:23:21.727Z,1004.59
2018-03-14T09:24:21.716Z,1004.64
2018-03-14T09:25:21.705Z,1004.65
2018-03-14T09:26:21.690Z,1004.6
2018-03-14T09:27:21.675Z,1004.66
2018-03-14T09:28:21.662Z,1004.65
2018-03-14T09:29:21.650Z,1004.69
2018-03-14T09:30:21.637Z,1004.64
2018-03-14T09:31:21.623Z,1004.62
2018-03-14T09:32:21.608Z,1004.62
2018-03-14T09:33:21.594Z,1004.65
2018-03-14T09:34:21.581Z,1004.59
2018-03-14T09:35:21.571Z,1004.61
2018-03-14T09:36:21.553Z,1004.62
2018-03-14T09:37:21.539Z,1004.63
2018-03-14T09:38:21.526Z,1004.66
2018-03-14T09:39:21.512Z,1004.67
2018-03-14T09:40:21.500Z,1004.7
2018-03-14T09:41:21.483Z,1004.67
2018-03-14T09:42:21.470Z,1004.7
2018-03-14T09:43:21.458Z,1004.7
2018-03-14T09:44:21.444Z,1004.73
2018-03-14T09:45:21.630Z,1004.73
2018-03-14T09:46:21.413Z,1004.71
2018-03-14T09:47:21.400Z,1004.74
2018-03-14T09:48:21.435Z,1004.75
2018-03-14T09:49:21.372Z,1004.8
2018-03-14T09:50:21.356Z,1004.77
2018-03-14T09:51:21.342Z,1004.77
2018-03-14T09:52:21.328Z,1004.75
2018-03-14T09:53:21.313Z,1004.73
2018-03-14T09:54:21.297Z,1004.76
2018-03-14T09:55:21.284Z,1004.72
2018-03-14T09:56:21.269Z,1004.68
2018-03-14T09:57:21.254Z,1004.67
2018-03-14T09:58:21.240Z,1004.69
2018-03-14T09:59:21.224Z,1004.67
2018-03-14T10:00:21.211Z,1004.69
2018-03-14T10:01:21.196Z,1004.7
2018-03-14T10:02:21.187Z,1004.7
2018-03-14T10:03:21.164Z,1004.69
2018-03-14T10:04:21.150Z,1004.7
2018-03-14T10:05:21.134Z,1004.67
2018-03-14T10:06:21.119Z,1004.69
2018-03-14T10:07:21.103Z,1004.65
2018-03-14T10:08:21.091Z,1004.68
2018-03-14T10:09:21.071Z,1004.69
2018-03-14T10:10:21.056Z,1004.67
2018-03-14T10:11:21.040Z,1004.68
2018-03-14T10:12:21.024Z,1004.7
2018-03-14T10:13:21.007Z,1004.68
2018-03-14T10:14:20.994Z,1004.68
2018-03-14T10:15:20.980Z,1004.69
2018-03-14T10:16:20.961Z,1004.66
2018-03-14T10:17:20.945Z,1004.66
2018-03-14T10:18:20.935Z,1004.66
2018-03-14T10:19:20.912Z,1004.67
2018-03-14T10:20:20.901Z,1004.69
2018-03-14T10:21:20.884Z,1004.72
2018-03-14T10:22:20.874Z,1004.69
2018-03-14T10:23:20.852Z,1004.68
2018-03-14T10:24:20.838Z,1004.66
2018-03-14T10:25:20.822Z,1004.71
2018-03-14T10:26:20.809Z,1004.7
2018-03-14T10:27:20.792Z,1004.7
2018-03-14T10:28:20.778Z,1004.74
2018-03-14T10:29:20.761Z,1004.72
2018-03-14T10:30:20.748Z,1004.7
2018-03-14T10:31:20.733Z,1004.67
2018-03-14T10:32:20.718Z,1004.71
2018-03-14T10:33:20.704Z,1004.7
2018-03-14T10:34:20.688Z,1004.71
2018-03-14T10:35:20.673Z,1004.74
2018-03-14T10:36:20.661Z,1004.78
2018-03-14T10:37:20.646Z,1004.8
2018-03-14T10:38:20.633Z,1004.8
2018-03-14T10:39:20.616Z,1004.85
2018-03-14T10:40:20.605Z,1004.83
2018-03-14T10:41:20.594Z,1004.88
2018-03-14T10:42:20.581Z,1004.85
2018-03-14T10:43:20.568Z,1004.8
2018-03-14T10:44:20.554Z,1004.85
2018-03-14T10:45:20.540Z,1004.77
2018-03-14T10:46:20.530Z,1004.81
2018-03-14T10:47:20.518Z,1004.83
2018-03-14T10:48:20.506Z,1004.76
2018-03-14T10:49:20.494Z,1004.78
2018-03-14T10:50:20.482Z,1004.77
2018-03-14T10:51:20.469Z,1004.74
2018-03-14T10:52:20.457Z,1004.77
2018-03-14T10:53:20.446Z,1004.74
2018-03-14T10:54:20.436Z,1004.79
2018-03-14T10:55:20.424Z,1004.8
2018-03-14T10:56:20.409Z,1004.8
2018-03-14T10:57:20.397Z,1004.77
2018-03-14T10:58:20.384Z,1004.79
2018-03-14T10:59:20.372Z,1004.87
2018-03-14T11:00:20.362Z,1004.88
2018-03-14T11:01:20.350Z,1004.89
2018-03-14T11:02:20.339Z,1004.87
2018-03-14T11:03:20.327Z,1004.92
2018-03-14T11:04:20.367Z,1004.89
2018-03-14T11:05:20.305Z,1004.89
2018-03-14T11:06:20.295Z,1004.91
2018-03-14T11:07:20.288Z,1004.88
2018-03-14T11:08:20.279Z,1004.97
2018-03-14T11:09:20.320Z,1004.88
2018-03-14T11:10:20.262Z,1004.73
2018-03-14T11:11:20.254Z,1004.74
2018-03-14T11:12:20.248Z,1004.7
2018-03-14T11:13:20.240Z,1004.73
2018-03-14T11:14:20.236Z,1004.71
2018-03-14T11:15:20.229Z,1004.67
2018-03-14T11:16:20.225Z,1004.67
2018-03-14T11:17:20.216Z,1004.64
2018-03-14T11:18:20.213Z,1004.62
2018-03-14T11:19:20.204Z,1004.64
2018-03-14T11:20:20.231Z,1004.62
2018-03-14T11:21:20.188Z,1004.67
2018-03-14T11:22:20.182Z,1004.7
2018-03-14T11:23:20.174Z,1004.63
2018-03-14T11:24:20.165Z,1004.66
2018-03-14T11:25:20.157Z,1004.66
2018-03-14T11:26:20.149Z,1004.6
2018-03-14T11:27:20.142Z,1004.61
2018-03-14T11:28:20.133Z,1004.6
2018-03-14T11:29:20.126Z,1004.61
2018-03-14T11:30:20.116Z,1004.61
2018-03-14T11:31:20.105Z,1004.64
2018-03-14T11:32:20.099Z,1004.61
2018-03-14T11:33:20.088Z,1004.59
2018-03-14T11:34:20.080Z,1004.59
2018-03-14T11:35:20.073Z,1004.55
2018-03-14T11:36:20.061Z,1004.52
2018-03-14T11:37:20.052Z,1004.51
2018-03-14T11:38:20.043Z,1004.49
2018-03-14T11:39:20.034Z,1004.55
2018-03-14T11:40:20.024Z,1004.5
2018-03-14T11:41:20.018Z,1004.51
2018-03-14T11:42:20.075Z,1004.5
2018-03-14T11:43:19.994Z,1004.54
2018-03-14T11:44:19.985Z,1004.55
2018-03-14T11:45:20.174Z,1004.48
2018-03-14T11:46:19.962Z,1004.47
2018-03-14T11:47:19.951Z,1004.47
2018-03-14T11:48:19.947Z,1004.54
2018-03-14T11:49:19.932Z,1004.57
2018-03-14T11:50:19.922Z,1004.55
2018-03-14T11:51:19.912Z,1004.59
2018-03-14T11:52:19.905Z,1004.51
2018-03-14T11:53:19.895Z,1004.49
2018-03-14T11:54:19.889Z,1004.48
2018-03-14T11:55:19.885Z,1004.39
2018-03-14T11:56:19.932Z,1004.4
2018-03-14T11:57:19.910Z,1004.36
2018-03-14T11:58:19.866Z,1004.37
2018-03-14T11:59:19.862Z,1004.33
2018-03-14T12:00:19.856Z,1004.33
2018-03-14T12:01:19.854Z,1004.38
2018-03-14T12:02:19.851Z,1004.38
2018-03-14T12:03:19.845Z,1004.36
2018-03-14T12:04:19.839Z,1004.37
2018-03-14T12:05:19.837Z,1004.38
2018-03-14T12:06:19.838Z,1004.39
2018-03-14T12:07:19.898Z,1004.33
2018-03-14T12:08:19.830Z,1004.37